Time;durP1;ratioP1;P1;durP2;ratioP2;P2;SDS_P1;SDS_P2;PMS_P1;PMS_P2;Temp;Humidity;BMP_temperature;BMP_pressure;BME280_temperature;BME280_humidity;BME280_pressure;Samples;Min_cycle;Max_cycle;Signal;HPM_P1;HPM_P2
2021/05/28 00:02:15;;;;;;;7.90;5.30;;;;;;;10.71;100.00;96807.50;5002929;28;20527;-61
2021/05/28 00:04:43;;;;;;;7.15;5.15;;;;;;;10.66;100.00;96810.53;5005113;28;20073;-61
2021/05/28 00:07:11;;;;;;;5.70;5.10;;;;;;;10.73;100.00;96802.91;5006132;28;20089;-60
2021/05/28 00:09:40;;;;;;;5.85;5.30;;;;;;;10.80;100.00;96799.56;5005912;28;20092;-60
2021/05/28 00:12:09;;;;;;;5.47;4.95;;;;;;;10.73;100.00;96795.81;5005625;28;20084;-61
2021/05/28 00:14:37;;;;;;;5.80;5.30;;;;;;;10.71;100.00;96799.59;5005286;28;20069;-61
2021/05/28 00:17:05;;;;;;;5.75;5.20;;;;;;;10.66;100.00;96811.34;5006573;28;20069;-61
2021/05/28 00:19:35;;;;;;;6.18;5.57;;;;;;;10.75;100.00;96798.34;5005314;28;20061;-61
2021/05/28 00:22:03;;;;;;;6.47;5.27;;;;;;;10.84;100.00;96797.50;5005115;28;20074;-61
2021/05/28 00:24:31;;;;;;;6.22;5.32;;;;;;;10.83;100.00;96799.31;5003797;28;20899;-60
2021/05/28 00:26:59;;;;;;;5.38;4.88;;;;;;;10.89;100.00;96795.28;5007687;28;20081;-61
2021/05/28 00:29:27;;;;;;;7.40;6.30;;;;;;;10.75;100.00;96798.34;5001941;28;20069;-61
2021/05/28 00:31:55;;;;;;;8.30;6.43;;;;;;;10.71;100.00;96804.88;5004094;28;20065;-61
2021/05/28 00:34:22;;;;;;;10.30;7.10;;;;;;;10.75;100.00;96804.44;5006701;28;20077;-60
2021/05/28 00:36:51;;;;;;;7.88;7.07;;;;;;;10.89;100.00;96800.56;5005764;28;20570;-60
2021/05/28 00:39:19;;;;;;;7.82;6.55;;;;;;;10.85;100.00;96792.09;5000522;28;20061;-60
2021/05/28 00:41:47;;;;;;;9.10;6.13;;;;;;;10.87;100.00;96795.44;5005815;28;20073;-60
2021/05/28 00:44:21;;;;;;;6.53;5.90;;;;;;;10.77;100.00;96791.09;5003690;28;20078;-60
2021/05/28 00:46:49;;;;;;;6.18;5.57;;;;;;;10.80;100.00;96801.38;5002911;28;20061;-60
2021/05/28 00:49:17;;;;;;;7.10;5.40;;;;;;;10.74;100.00;96794.03;5002708;28;20057;-60
2021/05/28 00:51:45;;;;;;;6.13;5.53;;;;;;;10.93;100.00;96799.31;5007404;28;20728;-61
2021/05/28 00:54:14;;;;;;;6.50;5.65;;;;;;;10.78;100.00;96798.06;5004524;28;20069;-60
2021/05/28 00:56:42;;;;;;;8.80;5.55;;;;;;;10.84;100.00;96795.72;5004162;28;20073;-60
2021/05/28 00:59:11;;;;;;;6.60;5.88;;;;;;;10.65;100.00;96788.59;5002384;28;20069;-56
2021/05/28 01:01:40;;;;;;;6.43;5.65;;;;;;;10.87;100.00;96797.22;5006264;28;20058;-60
2021/05/28 01:04:08;;;;;;;6.97;6.05;;;;;;;10.74;100.00;96801.97;5002356;28;20077;-60
2021/05/28 01:06:36;;;;;;;7.50;6.20;;;;;;;10.65;100.00;96806.22;5006680;28;20081;-60
2021/05/28 01:09:05;;;;;;;7.03;6.32;;;;;;;10.69;100.00;96805.81;4999354;28;20069;-60
2021/05/28 01:11:34;;;;;;;7.30;6.22;;;;;;;10.75;100.00;96808.88;5002043;28;20081;-60
2021/05/28 01:14:02;;;;;;;7.20;6.50;;;;;;;10.75;100.00;96811.53;5001125;28;20066;-60
2021/05/28 01:16:30;;;;;;;7.60;6.38;;;;;;;10.75;100.00;96798.34;5000421;28;20065;-53
2021/05/28 01:18:58;;;;;;;6.88;6.22;;;;;;;10.74;100.00;96805.41;5003106;28;20551;-57
2021/05/28 01:21:27;;;;;;;8.63;6.60;;;;;;;10.76;100.00;96802.63;5006414;28;20108;-57
2021/05/28 01:23:55;;;;;;;9.15;6.57;;;;;;;10.84;100.00;96810.69;5004029;28;20069;-57
2021/05/28 01:26:24;;;;;;;7.25;6.00;;;;;;;10.87;100.00;96803.34;5001933;28;20077;-56
2021/05/28 01:28:52;;;;;;;8.40;6.70;;;;;;;10.73;100.00;96801.09;5005349;28;20058;-55
2021/05/28 01:31:20;;;;;;;7.40;6.43;;;;;;;10.76;100.00;96802.63;4998868;28;20073;-56
2021/05/28 01:33:48;;;;;;;7.78;6.55;;;;;;;10.76;100.00;96800.81;5007956;28;20078;-56
2021/05/28 01:36:16;;;;;;;7.90;6.43;;;;;;;10.56;100.00;96799.13;5001923;28;20069;-56
2021/05/28 01:38:44;;;;;;;7.55;6.85;;;;;;;10.50;100.00;96810.25;5002638;28;20490;-56
2021/05/28 01:41:13;;;;;;;7.93;6.13;;;;;;;10.29;100.00;96810.28;5002946;28;20080;-54
2021/05/28 01:43:41;;;;;;;8.30;6.55;;;;;;;10.25;100.00;96816.78;5002752;28;20068;-58
2021/05/28 01:46:09;;;;;;;8.35;7.07;;;;;;;10.27;100.00;96812.25;5002682;28;20471;-57
2021/05/28 01:48:40;;;;;;;9.90;7.35;;;;;;;10.23;100.00;96812.47;5008196;28;20092;-58
2021/05/28 01:51:08;;;;;;;8.25;7.45;;;;;;;10.20;100.00;96818.03;5002140;28;20551;-57
2021/05/28 01:53:36;;;;;;;7.50;6.63;;;;;;;10.09;100.00;96818.13;5002268;28;20066;-58
2021/05/28 01:56:04;;;;;;;8.38;7.07;;;;;;;9.98;100.00;96815.59;5002882;28;20062;-53
2021/05/28 01:58:34;;;;;;;8.05;7.18;;;;;;;9.81;100.00;96814.41;5000764;28;20476;-57
2021/05/28 02:01:02;;;;;;;8.05;7.25;;;;;;;9.74;100.00;96821.16;5005279;28;20085;-55
2021/05/28 02:03:30;;;;;;;7.72;6.82;;;;;;;9.69;100.00;96824.16;5006472;28;20084;-54
2021/05/28 02:05:59;;;;;;;9.50;7.60;;;;;;;9.66;100.00;96821.78;5005996;28;20112;-50
2021/05/28 02:08:27;;;;;;;9.65;7.13;;;;;;;9.60;100.00;96824.09;5007244;28;20080;-55
2021/05/28 02:10:55;;;;;;;8.55;7.47;;;;;;;9.58;100.00;96826.03;5003454;28;20076;-55
2021/05/28 02:13:23;;;;;;;8.73;7.30;;;;;;;9.52;100.00;96830.00;5002450;28;20520;-55
2021/05/28 02:15:52;;;;;;;9.30;7.90;;;;;;;9.48;100.00;96825.97;5003579;28;20072;-53
2021/05/28 02:18:22;;;;;;;8.45;7.55;;;;;;;9.36;100.00;96833.13;4999866;28;20138;-53
2021/05/28 02:20:50;;;;;;;9.73;8.10;;;;;;;9.31;100.00;96834.44;5007764;28;20552;-56
2021/05/28 02:23:18;;;;;;;8.25;7.35;;;;;;;9.31;100.00;96830.00;5004204;28;20069;-55
2021/05/28 02:25:46;;;;;;;9.80;7.80;;;;;;;9.30;100.00;96825.72;5005992;28;20080;-54
2021/05/28 02:28:15;;;;;;;8.43;7.65;;;;;;;9.23;100.00;96827.19;5004899;28;20452;-55
2021/05/28 02:30:43;;;;;;;9.60;8.57;;;;;;;9.19;100.00;96825.78;5007085;28;20456;-56
2021/05/28 02:33:12;;;;;;;8.98;7.93;;;;;;;9.11;100.00;96836.09;5003669;28;20072;-59
2021/05/28 02:35:40;;;;;;;9.60;8.20;;;;;;;9.07;100.00;96835.50;5007900;28;20076;-56
2021/05/28 02:38:08;;;;;;;10.27;8.80;;;;;;;9.07;100.00;96839.94;5000755;28;20069;-56
2021/05/28 02:40:36;;;;;;;10.90;8.20;;;;;;;8.97;100.00;96845.09;5008364;28;20072;-58
2021/05/28 02:43:04;;;;;;;9.82;8.82;;;;;;;8.86;100.00;96843.34;5007087;28;20077;-57
2021/05/28 02:45:32;;;;;;;10.15;9.02;;;;;;;8.86;100.00;96839.91;5004888;28;20073;-55
2021/05/28 02:48:00;;;;;;;10.23;9.20;;;;;;;8.89;100.00;96843.09;5007792;28;20062;-55
2021/05/28 02:50:32;;;;;;;10.45;8.73;;;;;;;8.79;100.00;96845.66;5002269;28;20065;-52
2021/05/28 02:53:01;;;;;;;10.63;8.60;;;;;;;8.74;100.00;96847.81;5004970;28;20062;-57
2021/05/28 02:55:29;;;;;;;10.07;9.05;;;;;;;8.68;100.00;96852.75;5003004;28;20058;-56
2021/05/28 02:57:57;;;;;;;12.48;9.65;;;;;;;8.66;100.00;96852.84;5003180;28;20591;-55
2021/05/28 03:00:25;;;;;;;10.85;9.63;;;;;;;8.62;100.00;96851.44;5006082;28;20104;-56
2021/05/28 03:02:53;;;;;;;12.15;10.15;;;;;;;8.60;100.00;96849.88;5006635;28;20072;-56
2021/05/28 03:05:22;;;;;;;11.35;10.00;;;;;;;8.61;100.00;96843.69;5002758;28;20192;-54
2021/05/28 03:07:51;;;;;;;10.98;9.88;;;;;;;8.59;100.00;96846.41;5008593;28;20073;-57
2021/05/28 03:10:19;;;;;;;12.25;10.98;;;;;;;8.65;100.00;96845.94;5004004;28;20072;-56
2021/05/28 03:12:47;;;;;;;11.98;10.77;;;;;;;8.68;100.00;96837.78;5007227;28;20081;-57
2021/05/28 03:15:15;;;;;;;13.30;9.95;;;;;;;8.76;100.00;96829.28;5005242;28;20084;-55
2021/05/28 03:17:45;;;;;;;12.43;9.95;;;;;;;8.83;100.00;96819.09;5006515;28;20532;-58
2021/05/28 03:20:20;;;;;;;13.88;10.75;;;;;;;8.73;100.00;96817.22;5003741;28;20096;-51
2021/05/28 03:22:48;;;;;;;11.50;9.90;;;;;;;8.77;100.00;96831.81;5007978;28;20091;-58
2021/05/28 03:25:17;;;;;;;11.70;10.48;;;;;;;8.76;100.00;96824.03;5001800;28;20061;-57
2021/05/28 03:27:48;;;;;;;10.95;9.85;;;;;;;8.75;100.00;96823.19;5007322;28;20537;-54
2021/05/28 03:30:18;;;;;;;11.50;9.95;;;;;;;8.51;100.00;96828.63;5004441;28;20076;-57
2021/05/28 03:32:46;;;;;;;12.90;10.20;;;;;;;8.50;100.00;96834.84;5002584;28;20551;-54
2021/05/28 03:35:14;;;;;;;11.30;9.90;;;;;;;8.62;100.00;96840.91;5004638;28;20088;-56
2021/05/28 03:37:42;;;;;;;12.10;9.25;;;;;;;8.69;100.00;96842.09;5009269;28;20234;-56
2021/05/28 03:40:12;;;;;;;13.82;10.25;;;;;;;8.88;100.00;96837.97;5003607;28;20502;-54
2021/05/28 03:42:41;;;;;;;16.17;10.27;;;;;;;8.92;100.00;96837.59;5005066;28;20085;-57
2021/05/28 03:45:10;;;;;;;14.55;9.82;;;;;;;8.91;100.00;96841.22;5005828;28;20081;-53
2021/05/28 03:47:38;;;;;;;11.75;10.18;;;;;;;9.05;100.00;96829.56;4999957;28;20523;-58
2021/05/28 03:50:08;;;;;;;10.40;9.38;;;;;;;9.21;100.00;96839.63;5008182;28;20449;-56
2021/05/28 03:52:36;;;;;;;11.02;9.13;;;;;;;9.08;100.00;96842.44;5002645;28;20065;-58
2021/05/28 03:55:06;;;;;;;10.82;9.52;;;;;;;9.21;100.00;96837.00;5003742;28;20068;-56
2021/05/28 03:57:34;;;;;;;10.40;9.30;;;;;;;9.07;100.00;96839.94;5007855;28;20061;-57
2021/05/28 04:00:05;;;;;;;9.88;8.88;;;;;;;9.10;100.00;96845.78;5006125;28;20074;-54
2021/05/28 04:02:33;;;;;;;14.10;9.10;;;;;;;9.19;100.00;96845.03;5003201;28;20081;-58
2021/05/28 04:05:01;;;;;;;10.63;8.90;;;;;;;9.03;100.00;96847.25;5005904;28;20092;-53
2021/05/28 04:07:29;;;;;;;12.63;8.90;;;;;;;9.04;100.00;96843.66;5002694;28;20076;-58
2021/05/28 04:09:57;;;;;;;9.55;8.65;;;;;;;9.25;100.00;96843.69;5005240;28;20065;-58
2021/05/28 04:12:25;;;;;;;9.65;8.60;;;;;;;9.30;100.00;96844.16;5005782;28;20082;-58
2021/05/28 04:14:53;;;;;;;10.55;8.68;;;;;;;9.23;100.00;96846.44;5004733;28;20587;-55
2021/05/28 04:17:22;;;;;;;10.90;8.65;;;;;;;9.42;100.00;96844.91;5003222;28;20058;-56
2021/05/28 04:19:50;;;;;;;11.48;8.43;;;;;;;9.43;100.00;96847.44;5003641;28;20042;-55
2021/05/28 04:22:18;;;;;;;9.20;8.30;;;;;;;9.43;100.00;96838.69;5003193;28;20065;-52
2021/05/28 04:24:46;;;;;;;9.80;8.80;;;;;;;9.64;100.00;96842.16;5008377;28;20061;-52
2021/05/28 04:27:14;;;;;;;9.43;8.25;;;;;;;9.72;100.00;96839.69;5001153;28;20077;-52
2021/05/28 04:29:42;;;;;;;9.35;7.95;;;;;;;9.80;100.00;96840.84;5000936;28;20061;-57
2021/05/28 04:32:10;;;;;;;11.10;8.50;;;;;;;10.12;100.00;96835.47;5004944;28;20089;-55
2021/05/28 04:34:39;;;;;;;10.77;8.57;;;;;;;10.16;100.00;96828.97;5001291;28;20069;-55
2021/05/28 04:37:07;;;;;;;9.88;8.60;;;;;;;10.51;100.00;96831.19;5005639;28;20088;-56
2021/05/28 04:39:35;;;;;;;10.07;7.88;;;;;;;10.68;100.00;96833.16;5003027;28;20107;-58
2021/05/28 04:42:04;;;;;;;9.30;7.70;;;;;;;10.55;100.00;96832.59;5007113;28;20066;-56
2021/05/28 04:44:32;;;;;;;14.75;7.25;;;;;;;10.68;100.00;96833.16;5004071;28;20054;-56
2021/05/28 04:47:00;;;;;;;7.78;7.00;;;;;;;10.84;100.00;96832.66;5003270;28;20515;-57
2021/05/28 04:49:29;;;;;;;8.88;7.57;;;;;;;10.65;100.00;96830.78;5000474;28;20436;-53
2021/05/28 04:51:58;;;;;;;8.20;7.40;;;;;;;10.85;100.00;96833.47;5005602;28;20069;-55
2021/05/28 04:54:26;;;;;;;7.85;7.03;;;;;;;11.47;100.00;96826.13;5004092;28;20065;-53
2021/05/28 04:56:54;;;;;;;8.82;7.45;;;;;;;13.16;100.00;96811.69;5004800;28;20061;-55
2021/05/28 04:59:23;;;;;;;8.52;6.90;;;;;;;14.75;100.00;96805.22;5037713;23;20445;-62
2021/05/28 05:01:51;;;;;;;8.98;5.72;;;;;;;13.81;100.00;96814.03;5000521;28;20073;-62
2021/05/28 05:04:19;;;;;;;7.53;5.93;;;;;;;13.17;100.00;96823.13;5005816;28;20092;-63
2021/05/28 05:06:47;;;;;;;6.63;5.82;;;;;;;12.58;100.00;96825.34;5006026;28;20073;-62
2021/05/28 05:09:16;;;;;;;7.78;5.63;;;;;;;12.29;100.00;96831.59;5002476;28;20633;-62
2021/05/28 05:11:44;;;;;;;9.55;5.93;;;;;;;12.47;100.00;96831.66;5008304;28;20060;-63
2021/05/28 05:14:13;;;;;;;7.25;5.63;;;;;;;12.75;100.00;96829.00;4985878;28;20065;-63
2021/05/28 05:16:41;;;;;;;8.07;6.78;;;;;;;13.78;100.00;96825.78;5010611;28;20081;-62
2021/05/28 05:19:11;;;;;;;;;;;;;;;14.78;100.00;96826.13;5009835;28;20470;-62
2021/05/28 05:21:40;;;;;;;6.10;5.50;;;;;;;15.94;100.00;96814.59;4987205;28;19921;-62
2021/05/28 05:24:09;;;;;;;6.93;5.43;;;;;;;14.25;100.00;96820.09;4986732;28;20074;-63
2021/05/28 05:26:39;;;;;;;7.32;5.30;;;;;;;12.92;100.00;96825.53;4986298;28;20057;-63
2021/05/28 05:29:09;;;;;;;6.43;5.60;;;;;;;12.34;100.00;96831.16;4987341;28;20057;-63
2021/05/28 05:31:39;;;;;;;6.63;5.68;;;;;;;12.04;100.00;96835.75;5003797;28;20080;-63
2021/05/28 05:34:07;;;;;;;7.32;5.97;;;;;;;12.71;100.00;96835.56;5004996;28;20474;-63
2021/05/28 05:36:39;;;;;;;7.32;5.80;;;;;;;14.00;100.00;96818.28;5004393;28;20078;-63
2021/05/28 05:39:08;;;;;;;8.50;5.47;;;;;;;12.60;100.00;96828.69;5010106;28;20492;-63
2021/05/28 05:41:36;;;;;;;8.95;5.65;;;;;;;13.46;100.00;96825.56;5004105;28;20065;-63
2021/05/28 05:44:06;;;;;;;8.60;5.68;;;;;;;14.25;100.00;96820.09;5001765;28;20061;-63
2021/05/28 05:46:34;;;;;;;5.95;5.38;;;;;;;13.64;100.00;96825.53;5007254;28;20061;-63
2021/05/28 05:49:03;;;;;;;8.98;5.88;;;;;;;14.01;100.00;96827.94;5004944;28;20082;-63
2021/05/28 05:51:31;;;;;;;6.32;5.15;;;;;;;15.41;100.00;96832.69;5008411;28;22029;-63
2021/05/28 05:53:59;;;;;;;6.22;4.85;;;;;;;16.08;100.00;96833.34;5007830;28;20407;-63
2021/05/28 05:56:27;;;;;;;6.53;5.18;;;;;;;14.35;100.00;96835.03;5004878;28;20068;-62
2021/05/28 05:58:55;;;;;;;6.10;4.95;;;;;;;14.53;100.00;96829.69;4996131;28;20057;-63
2021/05/28 06:01:24;;;;;;;7.70;5.20;;;;;;;14.33;100.00;96832.56;5006958;28;20440;-63
2021/05/28 06:03:52;;;;;;;7.18;5.20;;;;;;;14.38;100.00;96829.41;4991874;28;20077;-63
2021/05/28 06:06:20;;;;;;;5.60;5.05;;;;;;;14.13;100.00;96825.81;5008834;28;20073;-62
2021/05/28 06:08:48;;;;;;;7.22;5.80;;;;;;;13.80;100.00;96830.94;5009033;28;20530;-62
2021/05/28 06:11:16;;;;;;;8.13;5.50;;;;;;;14.10;100.00;96834.91;4988368;28;20062;-62
2021/05/28 06:13:44;;;;;;;7.65;5.95;;;;;;;14.40;100.00;96833.59;5010954;28;20061;-62
2021/05/28 06:16:13;;;;;;;6.68;5.78;;;;;;;14.09;100.00;96837.75;5011763;28;20088;-62
2021/05/28 06:18:42;;;;;;;6.72;5.43;;;;;;;13.99;100.00;96833.38;5008489;28;20677;-62
2021/05/28 06:21:10;;;;;;;5.90;5.10;;;;;;;13.87;100.00;96842.59;5012242;28;20069;-62
2021/05/28 06:23:38;;;;;;;7.60;5.80;;;;;;;14.04;100.00;96838.22;4988065;28;20054;-62
2021/05/28 06:26:06;;;;;;;7.63;6.10;;;;;;;14.05;100.00;96844.34;5010448;28;20066;-62
2021/05/28 06:28:34;;;;;;;6.50;5.90;;;;;;;13.82;100.00;96838.72;5006456;28;20078;-61
2021/05/28 06:31:02;;;;;;;6.15;5.53;;;;;;;14.47;100.00;96839.91;5008373;28;20061;-62
2021/05/28 06:33:30;;;;;;;6.70;5.97;;;;;;;14.11;100.00;96836.59;4992952;28;20062;-61
2021/05/28 06:35:59;;;;;;;7.53;6.00;;;;;;;14.79;100.00;96840.22;5007807;28;20082;-62
2021/05/28 06:38:27;;;;;;;6.63;5.85;;;;;;;14.89;100.00;96844.41;5004380;28;20057;-62
2021/05/28 06:40:56;;;;;;;6.47;5.50;;;;;;;14.71;100.00;96843.69;5014833;28;20108;-62
2021/05/28 06:43:24;;;;;;;8.15;6.00;;;;;;;14.66;100.00;96843.34;5004136;28;20530;-62
2021/05/28 06:45:52;;;;;;;7.38;5.95;;;;;;;15.72;100.00;96830.22;5012781;28;20564;-62
2021/05/28 06:48:20;;;;;;;6.18;5.63;;;;;;;15.42;100.00;96834.38;5006789;28;20081;-62
2021/05/28 06:50:48;;;;;;;7.35;5.80;;;;;;;15.95;100.00;96838.34;5007833;28;20066;-62
2021/05/28 06:53:17;;;;;;;6.13;5.43;;;;;;;15.78;100.00;96840.19;5004969;28;20460;-62
2021/05/28 06:55:45;;;;;;;6.18;5.57;;;;;;;15.17;100.00;96855.59;5012880;28;20071;-62
2021/05/28 06:58:16;;;;;;;6.13;5.53;;;;;;;16.11;100.00;96843.66;5002635;28;20062;-62
2021/05/28 07:00:44;;;;;;;7.32;5.63;;;;;;;16.17;100.00;96852.75;5008141;28;20077;-62
2021/05/28 07:03:12;;;;;;;6.05;5.30;;;;;;;16.79;100.00;96855.59;5007280;28;20068;-62
2021/05/28 07:05:40;;;;;;;6.45;5.47;;;;;;;16.61;100.00;96850.44;5003784;28;20225;-62
2021/05/28 07:08:10;;;;;;;7.55;5.47;;;;;;;16.51;100.00;96851.66;5014646;28;20069;-62
2021/05/28 07:10:40;;;;;;;6.10;5.03;;;;;;;16.65;100.00;96860.75;4986258;28;20217;-62
2021/05/28 07:13:09;;;;;;;7.30;5.50;;;;;;;16.49;100.00;96851.84;4986489;28;20508;-62
2021/05/28 07:15:38;;;;;;;5.63;5.13;;;;;;;16.78;100.00;96853.91;5013897;28;20057;-62
2021/05/28 07:18:06;;;;;;;7.40;5.60;;;;;;;17.00;100.00;96852.31;4988199;28;20053;-62
2021/05/28 07:20:35;;;;;;;6.72;5.68;;;;;;;17.08;100.00;96860.25;5005309;28;20065;-62
2021/05/28 07:23:03;;;;;;;5.95;5.35;;;;;;;17.78;98.92;96861.13;5008733;28;20076;-62
2021/05/28 07:25:31;;;;;;;6.82;5.97;;;;;;;17.39;100.00;96856.72;5004565;28;20065;-62
2021/05/28 07:28:00;;;;;;;7.97;6.32;;;;;;;17.64;97.91;96868.03;5009766;28;20057;-62
2021/05/28 07:30:28;;;;;;;6.13;5.53;;;;;;;17.20;100.00;96868.66;5009891;28;20400;-62
2021/05/28 07:32:56;;;;;;;7.55;5.70;;;;;;;16.92;100.00;96867.50;5007678;28;20453;-62
2021/05/28 07:35:24;;;;;;;6.57;5.63;;;;;;;16.57;100.00;96865.13;4991543;28;20061;-62
2021/05/28 07:37:52;;;;;;;6.50;5.90;;;;;;;16.49;100.00;96859.84;4989495;28;20080;-62
2021/05/28 07:40:21;;;;;;;9.57;7.20;;;;;;;16.46;100.00;96859.34;4989143;28;20068;-62
2021/05/28 07:42:49;;;;;;;9.35;6.63;;;;;;;16.77;100.00;96859.44;5015414;28;20436;-62
2021/05/28 07:45:19;;;;;;;7.65;6.65;;;;;;;16.77;100.00;96854.09;5005256;28;20346;-62
2021/05/28 07:47:47;;;;;;;8.45;6.72;;;;;;;17.13;100.00;96858.88;5008616;28;20077;-62
2021/05/28 07:50:15;;;;;;;7.15;6.43;;;;;;;16.96;100.00;96856.31;5009461;28;20550;-62
2021/05/28 07:52:43;;;;;;;7.47;6.65;;;;;;;16.98;100.00;96856.97;5006172;28;20073;-62
2021/05/28 07:55:12;;;;;;;9.93;7.03;;;;;;;17.25;100.00;96858.31;5009031;28;20096;-62
2021/05/28 07:57:40;;;;;;;6.28;5.60;;;;;;;18.03;98.97;96853.72;4988288;28;20088;-62
2021/05/28 08:00:10;;;;;;;8.32;6.65;;;;;;;17.76;100.00;96857.81;5004825;28;20477;-62
2021/05/28 08:02:39;;;;;;;9.32;6.45;;;;;;;17.46;100.00;96860.34;5008301;28;20065;-62
2021/05/28 08:05:08;;;;;;;7.60;6.80;;;;;;;17.28;100.00;96855.31;5003485;28;20547;-62
2021/05/28 08:07:37;;;;;;;9.30;6.70;;;;;;;17.04;100.00;96855.47;4985351;28;20073;-62
2021/05/28 08:10:07;;;;;;;7.40;6.40;;;;;;;17.21;100.00;96854.34;5012389;28;20491;-62
2021/05/28 08:12:35;;;;;;;7.32;6.63;;;;;;;17.43;100.00;96850.03;5006291;28;20082;-62
2021/05/28 08:15:03;;;;;;;7.40;6.38;;;;;;;17.27;100.00;96858.13;4992244;28;20060;-62
2021/05/28 08:17:34;;;;;;;8.05;6.80;;;;;;;17.68;100.00;96860.50;5004785;28;20058;-62
2021/05/28 08:20:03;;;;;;;;;;;;;;;18.49;95.21;96862.41;5007939;28;20057;-62
2021/05/28 08:22:30;;;;;;;6.90;5.95;;;;;;;18.37;85.50;96863.88;5003856;28;20212;-62
2021/05/28 08:24:58;;;;;;;6.38;5.65;;;;;;;17.29;90.78;96859.63;5009424;28;20061;-62
2021/05/28 08:27:26;;;;;;;6.43;5.82;;;;;;;18.43;96.78;96859.66;5003077;28;20481;-63
2021/05/28 08:29:54;;;;;;;7.93;5.90;;;;;;;18.45;100.00;96858.47;5011047;28;20073;-62
2021/05/28 08:32:23;;;;;;;6.32;5.72;;;;;;;18.01;100.00;96864.56;5009455;28;20068;-62
2021/05/28 08:34:51;;;;;;;8.30;6.38;;;;;;;17.75;100.00;96864.94;5004304;28;20069;-62
2021/05/28 08:37:19;;;;;;;6.85;6.05;;;;;;;17.46;100.00;96864.84;5005955;28;20081;-62
2021/05/28 08:39:47;;;;;;;6.57;5.28;;;;;;;16.75;100.00;96861.41;5007830;28;20493;-62
2021/05/28 08:42:19;;;;;;;6.65;5.97;;;;;;;18.33;93.81;96859.91;5006265;28;20057;-62
2021/05/28 08:44:47;;;;;;;7.35;6.13;;;;;;;18.24;82.38;96861.03;5006467;28;20061;-62
2021/05/28 08:47:16;;;;;;;7.30;5.93;;;;;;;17.83;81.75;96856.09;5006563;28;20534;-62
2021/05/28 08:49:47;;;;;;;6.40;5.80;;;;;;;17.57;87.49;96853.75;4989198;28;20468;-62
2021/05/28 08:52:15;;;;;;;7.70;5.95;;;;;;;16.74;100.00;96854.41;5007244;28;20072;-62
2021/05/28 08:54:44;;;;;;;6.47;5.80;;;;;;;16.97;100.00;96858.00;5006988;28;20076;-62
2021/05/28 08:57:12;;;;;;;6.28;5.00;;;;;;;16.41;100.00;96859.84;5006571;28;20070;-62
2021/05/28 08:59:40;;;;;;;7.28;5.80;;;;;;;16.63;100.00;96850.31;5005884;28;20069;-62
2021/05/28 09:02:33;;;;;;;7.22;5.38;;;;;;;17.26;97.78;96857.31;5003899;28;20077;-62
2021/05/28 09:05:10;;;;;;;6.80;6.10;;;;;;;17.22;100.00;96844.53;5003791;28;20461;-62
2021/05/28 09:07:38;;;;;;;7.05;5.68;;;;;;;18.15;100.00;96846.09;5010314;28;20069;-62
2021/05/28 09:10:31;;;;;;;7.75;5.43;;;;;;;18.79;91.51;96848.22;5001895;28;20499;-62
2021/05/28 09:13:13;;;;;;;5.97;5.38;;;;;;;19.03;78.17;96844.41;4998510;28;20472;-62
2021/05/28 09:15:43;;;;;;;6.60;5.00;;;;;;;18.51;87.56;96848.88;5014225;28;20077;-62
2021/05/28 09:18:12;;;;;;;6.70;5.15;;;;;;;19.17;88.10;96847.06;5006349;28;20072;-62
2021/05/28 09:20:41;;;;;;;5.95;5.35;;;;;;;19.51;89.04;96845.56;5001119;28;20145;-62
2021/05/28 09:23:12;;;;;;;6.45;5.53;;;;;;;18.60;86.43;96844.28;5005916;28;20068;-62
2021/05/28 09:25:56;;;;;;;6.00;5.40;;;;;;;19.34;85.66;96841.44;5001520;28;20464;-62
2021/05/28 09:28:24;;;;;;;7.45;5.65;;;;;;;19.32;87.04;96849.66;5004167;28;20072;-62
2021/05/28 09:31:01;;;;;;;6.25;5.15;;;;;;;19.44;86.19;96845.47;5009163;28;20093;-62
2021/05/28 09:33:32;;;;;;;5.68;5.18;;;;;;;19.27;84.42;96854.78;5008959;28;20100;-62
2021/05/28 09:36:15;;;;;;;7.03;5.70;;;;;;;19.74;96.24;96845.34;5006679;28;20068;-62
2021/05/28 09:38:57;;;;;;;6.45;5.28;;;;;;;18.83;81.22;96850.34;5013228;28;20061;-61
2021/05/28 09:41:40;;;;;;;7.03;5.28;;;;;;;18.37;74.85;96844.34;5007175;28;20071;-62
2021/05/28 09:44:11;;;;;;;5.75;5.03;;;;;;;18.47;83.89;96847.56;5009167;28;20073;-62
2021/05/28 09:46:39;;;;;;;6.78;5.75;;;;;;;17.70;100.00;96855.84;5012097;28;20072;-62
2021/05/28 09:49:09;;;;;;;7.55;5.75;;;;;;;17.55;100.00;96847.78;5008696;28;20624;-62
2021/05/28 09:51:38;;;;;;;;;;;;;;;17.58;100.00;96851.91;5010082;28;20088;-62
2021/05/28 09:54:13;;;;;;;6.30;5.70;;;;;;;17.49;100.00;96848.50;5015459;28;19964;-62
2021/05/28 09:56:43;;;;;;;7.95;6.00;;;;;;;17.67;96.86;96841.00;5008685;28;20434;-62
2021/05/28 09:59:13;;;;;;;6.50;5.47;;;;;;;17.70;93.51;96845.16;5011916;28;20072;-62
2021/05/28 10:01:56;;;;;;;5.68;5.13;;;;;;;17.94;91.68;96846.81;5011337;28;20084;-62
2021/05/28 10:04:24;;;;;;;7.22;5.65;;;;;;;18.44;94.33;96845.28;5007645;28;20065;-62
2021/05/28 10:06:53;;;;;;;5.95;5.35;;;;;;;18.38;91.18;96848.72;5007674;28;20546;-62
2021/05/28 10:09:22;;;;;;;8.07;5.60;;;;;;;18.57;94.85;96848.13;5009472;28;20216;-62
2021/05/28 10:11:52;;;;;;;5.72;4.80;;;;;;;18.72;85.55;96846.31;5006954;28;20073;-62
2021/05/28 10:14:20;;;;;;;6.25;5.20;;;;;;;18.66;79.54;96843.53;5008801;28;20068;-62
2021/05/28 10:16:49;;;;;;;5.75;5.15;;;;;;;19.05;82.38;96842.38;4990177;28;20069;-62
2021/05/28 10:19:18;;;;;;;5.55;4.95;;;;;;;18.89;77.20;96844.28;5006985;28;20065;-62
2021/05/28 10:21:46;;;;;;;5.95;5.32;;;;;;;18.90;82.64;96834.41;5010318;28;20062;-62
2021/05/28 10:24:14;;;;;;;5.72;5.22;;;;;;;18.86;77.77;96833.94;5010097;28;20204;-62
2021/05/28 10:26:44;;;;;;;6.20;5.60;;;;;;;18.61;83.02;96829.88;5003190;28;20438;-62
2021/05/28 10:29:13;;;;;;;7.22;4.93;;;;;;;18.91;81.53;96834.19;5012781;28;20068;-62
2021/05/28 10:31:55;;;;;;;7.07;5.45;;;;;;;19.57;73.29;96828.72;5003912;28;20473;-62
2021/05/28 10:34:24;;;;;;;6.45;5.00;;;;;;;19.78;69.22;96830.56;5005291;28;20161;-62
2021/05/28 10:36:53;;;;;;;5.65;5.05;;;;;;;19.83;68.98;96835.34;5010190;28;20108;-63
2021/05/28 10:39:22;;;;;;;5.47;4.63;;;;;;;19.89;73.43;96823.88;5010890;28;20072;-62
2021/05/28 10:41:52;;;;;;;5.82;5.22;;;;;;;19.99;66.11;96827.03;5003969;28;20448;-62
2021/05/28 10:44:23;;;;;;;10.15;5.85;;;;;;;18.57;80.60;96833.94;5012040;28;20172;-62
2021/05/28 10:46:53;;;;;;;6.10;5.50;;;;;;;18.26;78.86;96834.97;5006211;28;20069;-62
2021/05/28 10:49:42;;;;;;;6.07;5.18;;;;;;;17.91;89.11;96825.81;5012547;28;20130;-62
2021/05/28 10:52:26;;;;;;;5.47;4.93;;;;;;;18.09;93.08;96830.81;5005124;28;20085;-61
2021/05/28 10:54:57;;;;;;;6.97;5.43;;;;;;;17.61;100.00;96832.88;5006080;28;20503;-62
2021/05/28 10:57:33;;;;;;;8.00;5.20;;;;;;;17.64;80.25;96825.34;5007385;28;20092;-62
2021/05/28 11:00:09;;;;;;;5.10;4.65;;;;;;;17.34;100.00;96821.75;5009617;28;20057;-61
2021/05/28 11:02:54;;;;;;;5.35;4.85;;;;;;;16.81;94.56;96832.25;5005639;28;20503;-62
2021/05/28 11:05:43;;;;;;;5.30;4.80;;;;;;;16.53;100.00;96829.19;5003959;28;20061;-62
2021/05/28 11:08:35;;;;;;;7.60;5.47;;;;;;;16.31;100.00;96828.13;5007808;28;20131;-61
2021/05/28 11:11:04;;;;;;;5.32;4.68;;;;;;;16.35;100.00;96824.13;4991015;28;20096;-63
2021/05/28 11:13:32;;;;;;;6.07;4.55;;;;;;;16.22;100.00;96823.81;5003210;28;20069;-62
2021/05/28 11:16:01;;;;;;;5.15;4.53;;;;;;;16.35;100.00;96825.94;4992920;28;20073;-62
2021/05/28 11:18:45;;;;;;;6.18;4.82;;;;;;;16.83;100.00;96819.59;5005769;28;20123;-62
2021/05/28 11:21:15;;;;;;;6.53;4.70;;;;;;;17.06;95.32;96810.78;4991904;28;20073;-62
2021/05/28 11:23:45;;;;;;;5.88;4.70;;;;;;;17.26;100.00;96816.50;5014327;28;20072;-61
2021/05/28 11:26:17;;;;;;;6.10;4.63;;;;;;;17.66;91.93;96818.03;5008306;28;20068;-62
2021/05/28 11:28:57;;;;;;;4.85;3.92;;;;;;;18.15;86.82;96814.06;5003075;28;20508;-62
2021/05/28 11:31:28;;;;;;;5.53;4.60;;;;;;;18.53;90.97;96812.13;5012415;28;20060;-62
2021/05/28 11:34:01;;;;;;;4.40;3.90;;;;;;;19.32;65.42;96806.06;5003436;28;20073;-62
2021/05/28 11:36:50;;;;;;;4.95;4.00;;;;;;;20.06;63.65;96802.97;5010253;28;20108;-62
2021/05/28 11:39:21;;;;;;;5.30;4.30;;;;;;;20.57;56.65;96800.81;5004238;28;20112;-62